Dickinson's Hourly Summary for Friday, July 6, 2018
Hour Temp
(f)
RH
(%)
Solar Rad.
(MJ/m2)
Rainfall
(in)
Wind
(mph)
7/6/2018 12:00 AM 78 76 0 0 0.7
7/6/2018 1:00 AM 77 86 0 0 0.51
7/6/2018 2:00 AM 76 88 0 0 0.2
7/6/2018 3:00 AM 75 90 0 0 0
7/6/2018 4:00 AM 75 89 0 0 0.08
7/6/2018 5:00 AM 75 90 0 0 0.15
7/6/2018 6:00 AM 75 91 0 0 0
7/6/2018 7:00 AM 75 90 0.02 0 1.75
7/6/2018 8:00 AM 76 87 0.22 0 3.61
7/6/2018 9:00 AM 77 84 0.64 0 3.39
7/6/2018 10:00 AM 78 79 1.02 0 3.74
7/6/2018 11:00 AM 80 75 2.22 0 2.87
7/6/2018 12:00 PM 82 70 2.93 0 2.68
7/6/2018 1:00 PM 84 64 3.17 0 2.89
7/6/2018 2:00 PM 85 63 3.23 0 3.47
7/6/2018 3:00 PM 86 61 2.76 0 3.49
7/6/2018 4:00 PM 79 65 0.51 0.22 3.56
7/6/2018 5:00 PM 82 62 2.35 0 2.25
7/6/2018 6:00 PM 85 61 1.6 0 3.08
7/6/2018 7:00 PM 85 62 0.88 0 2.8
7/6/2018 8:00 PM 84 68 0.29 0 0.39
7/6/2018 9:00 PM 81 72 0.01 0 0
7/6/2018 10:00 PM 79 85 0 0 0
7/6/2018 11:00 PM 78 88 0 0 0
Data Summary 79 76 21.85 0.22 1.73